Time;durP1;ratioP1;P1;durP2;ratioP2;P2;SDS_P1;SDS_P2;PMS_P1;PMS_P2;Temp;Humidity;BMP_temperature;BMP_pressure;BME280_temperature;BME280_humidity;BME280_pressure;Samples;Min_cycle;Max_cycle;Signal;HPM_P1;HPM_P2
2021/10/15 00:01:28;;;;;;;340.87;317.67;;;;;;;;;;5031921;28;20452;-65
2021/10/15 00:03:55;;;;;;;341.40;318.50;;;;;;;;;;5031116;28;20484;-65
2021/10/15 00:06:22;;;;;;;349.93;326.37;;;;;;;;;;5031514;28;20484;-65
2021/10/15 00:08:49;;;;;;;354.53;330.20;;;;;;;;;;5030466;28;20815;-65
2021/10/15 00:11:16;;;;;;;347.03;323.53;;;;;;;;;;5031218;28;20467;-65
2021/10/15 00:13:43;;;;;;;354.77;330.20;;;;;;;;;;5031769;28;20482;-65
2021/10/15 00:16:10;;;;;;;345.90;322.50;;;;;;;;;;5030770;28;20452;-65
2021/10/15 00:18:39;;;;;;;356.80;332.83;;;;;;;;;;5027482;28;20815;-64
2021/10/15 00:21:06;;;;;;;355.67;331.30;;;;;;;;;;5012532;28;20460;-65
2021/10/15 00:23:33;;;;;;;364.47;339.77;;;;;;;;;;5029582;28;20484;-65
2021/10/15 00:26:01;;;;;;;368.43;343.10;;;;;;;;;;5028866;28;20855;-66
2021/10/15 00:28:28;;;;;;;370.67;345.17;;;;;;;;;;5031601;28;20971;-66
2021/10/15 00:30:57;;;;;;;361.50;337.23;;;;;;;;;;5030926;28;20464;-66
2021/10/15 00:33:24;;;;;;;365.57;341.10;;;;;;;;;;5026971;28;20484;-64
2021/10/15 00:35:53;;;;;;;361.90;337.80;;;;;;;;;;5030440;28;20460;-66
2021/10/15 00:38:20;;;;;;;364.67;340.13;;;;;;;;;;5031266;28;20460;-65
2021/10/15 00:40:47;;;;;;;367.63;343.13;;;;;;;;;;5031023;28;20476;-66
2021/10/15 00:43:14;;;;;;;351.63;326.90;;;;;;;;;;5031354;28;20465;-65
2021/10/15 00:45:43;;;;;;;363.03;338.50;;;;;;;;;;5029935;28;20464;-66
2021/10/15 00:48:10;;;;;;;356.30;332.20;;;;;;;;;;5031284;28;21236;-65
2021/10/15 00:50:37;;;;;;;343.70;320.50;;;;;;;;;;5030188;28;20461;-66
2021/10/15 00:53:06;;;;;;;349.57;325.80;;;;;;;;;;5031042;28;20488;-66
2021/10/15 00:55:33;;;;;;;355.27;330.93;;;;;;;;;;5032644;28;20468;-66
2021/10/15 00:58:00;;;;;;;349.10;325.40;;;;;;;;;;5034509;28;20451;-65
2021/10/15 01:00:27;;;;;;;360.20;335.80;;;;;;;;;;5034610;28;20468;-66
2021/10/15 01:02:55;;;;;;;359.13;335.50;;;;;;;;;;5034866;28;20471;-65
2021/10/15 01:05:23;;;;;;;362.23;338.63;;;;;;;;;;5033627;28;20468;-65
2021/10/15 01:07:50;;;;;;;356.53;332.67;;;;;;;;;;5033874;28;21014;-66
2021/10/15 01:10:18;;;;;;;355.83;332.03;;;;;;;;;;5035001;28;20457;-65
2021/10/15 01:12:45;;;;;;;351.00;327.57;;;;;;;;;;5034384;28;20465;-65
2021/10/15 01:15:13;;;;;;;352.20;328.50;;;;;;;;;;5034579;28;20453;-64
2021/10/15 01:17:40;;;;;;;359.27;335.67;;;;;;;;;;5029274;28;20804;-66
2021/10/15 01:20:09;;;;;;;362.33;338.53;;;;;;;;;;5033793;28;20460;-65
2021/10/15 01:22:36;;;;;;;362.37;338.47;;;;;;;;;;5033659;28;20472;-66
2021/10/15 01:25:04;;;;;;;354.57;331.57;;;;;;;;;;5032358;28;20464;-66
2021/10/15 01:27:31;;;;;;;359.77;336.03;;;;;;;;;;5014572;28;20570;-65
2021/10/15 01:29:58;;;;;;;347.80;324.73;;;;;;;;;;5026812;28;20471;-66
2021/10/15 01:32:25;;;;;;;341.57;318.77;;;;;;;;;;5034649;28;20456;-65
2021/10/15 01:34:52;;;;;;;348.00;324.10;;;;;;;;;;5033047;28;20491;-71
2021/10/15 01:37:21;;;;;;;340.00;316.60;;;;;;;;;;5034121;28;20960;-66
2021/10/15 01:39:48;;;;;;;350.03;326.47;;;;;;;;;;5033525;28;20456;-65
2021/10/15 01:44:56;;;;;;;353.57;329.70;;;;;;;;;;5031896;28;20544;-66
2021/10/15 01:47:23;;;;;;;351.20;327.40;;;;;;;;;;5034194;28;20491;-66
2021/10/15 01:49:50;;;;;;;353.43;329.90;;;;;;;;;;5033941;28;20469;-66
2021/10/15 01:52:17;;;;;;;355.37;331.47;;;;;;;;;;5034123;28;20821;-65
2021/10/15 01:54:46;;;;;;;347.03;323.60;;;;;;;;;;5029551;28;20489;-66
2021/10/15 01:57:13;;;;;;;352.57;328.50;;;;;;;;;;5033719;28;20479;-66
2021/10/15 01:59:40;;;;;;;342.80;319.80;;;;;;;;;;5032495;28;20471;-65
2021/10/15 02:02:07;;;;;;;336.20;313.30;;;;;;;;;;5033954;28;20936;-66
2021/10/15 02:04:34;;;;;;;337.47;314.50;;;;;;;;;;5032160;28;20488;-65
2021/10/15 02:07:01;;;;;;;330.30;307.23;;;;;;;;;;5033362;28;20495;-66
2021/10/15 02:09:28;;;;;;;329.53;307.33;;;;;;;;;;5032806;28;20475;-66
2021/10/15 02:11:59;;;;;;;334.47;311.57;;;;;;;;;;5033378;28;20943;-66
2021/10/15 02:14:26;;;;;;;338.30;315.40;;;;;;;;;;5027930;28;20584;-65
2021/10/15 02:16:53;;;;;;;342.93;319.60;;;;;;;;;;5033214;28;20812;-65
2021/10/15 02:19:20;;;;;;;342.97;319.50;;;;;;;;;;5032544;28;20473;-66
2021/10/15 02:21:47;;;;;;;338.23;314.43;;;;;;;;;;5033388;28;20448;-65
2021/10/15 02:24:14;;;;;;;345.73;321.30;;;;;;;;;;5030502;28;20484;-65
2021/10/15 02:26:41;;;;;;;337.93;314.50;;;;;;;;;;5032338;28;20493;-66
2021/10/15 02:29:10;;;;;;;350.17;326.17;;;;;;;;;;5033550;28;20475;-65
2021/10/15 02:31:37;;;;;;;345.47;321.97;;;;;;;;;;5032479;28;20540;-65
2021/10/15 02:34:04;;;;;;;350.60;326.60;;;;;;;;;;5027602;28;20469;-66
2021/10/15 02:36:31;;;;;;;354.90;331.50;;;;;;;;;;5021634;28;20467;-65
2021/10/15 02:38:58;;;;;;;358.30;334.37;;;;;;;;;;5032300;28;20460;-65
2021/10/15 02:41:25;;;;;;;360.73;336.10;;;;;;;;;;5033174;28;20873;-66
2021/10/15 02:43:52;;;;;;;372.67;347.80;;;;;;;;;;5032806;28;20802;-66
2021/10/15 02:46:21;;;;;;;361.43;337.00;;;;;;;;;;5032902;28;20441;-65
2021/10/15 02:48:48;;;;;;;369.83;344.63;;;;;;;;;;5032033;28;20991;-65
2021/10/15 02:51:15;;;;;;;370.23;345.87;;;;;;;;;;5032673;28;20456;-65
2021/10/15 02:53:42;;;;;;;378.97;353.93;;;;;;;;;;5031276;28;21048;-66
2021/10/15 02:56:10;;;;;;;378.47;353.33;;;;;;;;;;5031503;28;20991;-65
2021/10/15 02:58:37;;;;;;;387.50;361.63;;;;;;;;;;5032537;28;20468;-65
2021/10/15 03:01:04;;;;;;;386.03;361.43;;;;;;;;;;5032781;28;20456;-65
2021/10/15 03:03:32;;;;;;;385.00;360.43;;;;;;;;;;5031798;28;20492;-65
2021/10/15 03:05:59;;;;;;;383.80;359.20;;;;;;;;;;5032350;28;20445;-65
2021/10/15 03:08:26;;;;;;;380.30;355.87;;;;;;;;;;5031913;28;20484;-65
2021/10/15 03:10:54;;;;;;;384.80;360.90;;;;;;;;;;5031607;28;20851;-66
2021/10/15 03:13:21;;;;;;;376.90;352.47;;;;;;;;;;5031610;28;20484;-66
2021/10/15 03:15:48;;;;;;;376.93;352.93;;;;;;;;;;5032068;28;20452;-65
2021/10/15 03:18:15;;;;;;;380.23;355.23;;;;;;;;;;5031360;28;20461;-65
2021/10/15 03:20:44;;;;;;;392.83;367.60;;;;;;;;;;5032501;28;20457;-65
2021/10/15 03:23:11;;;;;;;373.77;349.57;;;;;;;;;;5031594;28;20486;-65
2021/10/15 03:25:38;;;;;;;373.13;348.80;;;;;;;;;;5030588;28;20487;-65
2021/10/15 03:28:05;;;;;;;382.37;356.07;;;;;;;;;;5031513;28;20481;-65
2021/10/15 03:30:33;;;;;;;371.93;347.67;;;;;;;;;;5030142;28;20479;-66
2021/10/15 03:33:00;;;;;;;361.87;338.10;;;;;;;;;;5032094;28;20472;-65
2021/10/15 03:35:27;;;;;;;358.00;334.60;;;;;;;;;;5031024;28;20456;-65
2021/10/15 03:37:55;;;;;;;355.03;330.40;;;;;;;;;;5031955;28;20831;-64
2021/10/15 03:40:23;;;;;;;358.83;334.20;;;;;;;;;;5031548;28;20469;-65
2021/10/15 03:42:50;;;;;;;352.93;328.53;;;;;;;;;;5032046;28;20449;-65
2021/10/15 03:45:17;;;;;;;358.60;333.67;;;;;;;;;;5030715;28;20480;-65
2021/10/15 03:47:45;;;;;;;350.07;325.83;;;;;;;;;;5031532;28;20480;-66
2021/10/15 03:50:12;;;;;;;349.03;324.43;;;;;;;;;;5031214;28;20472;-65
2021/10/15 03:52:40;;;;;;;343.53;318.93;;;;;;;;;;5031701;28;20445;-65
2021/10/15 03:55:10;;;;;;;343.77;320.33;;;;;;;;;;5054453;22;20500;-67
2021/10/15 03:57:37;;;;;;;339.20;315.37;;;;;;;;;;5031691;28;20459;-67
2021/10/15 04:00:05;;;;;;;344.03;319.63;;;;;;;;;;5031515;28;20468;-72
2021/10/15 04:02:32;;;;;;;352.03;327.33;;;;;;;;;;5031188;28;20921;-68
2021/10/15 04:04:59;;;;;;;357.37;332.77;;;;;;;;;;5011717;28;20464;-68
2021/10/15 04:07:26;;;;;;;347.13;323.27;;;;;;;;;;5012150;28;20512;-67
2021/10/15 04:09:53;;;;;;;338.87;315.47;;;;;;;;;;5030890;28;20468;-68
2021/10/15 04:12:22;;;;;;;331.70;308.40;;;;;;;;;;5032049;28;20978;-68
2021/10/15 04:14:49;;;;;;;354.03;330.13;;;;;;;;;;5018294;28;20491;-74
2021/10/15 04:17:16;;;;;;;375.73;350.53;;;;;;;;;;5031631;28;20939;-68
2021/10/15 04:19:43;;;;;;;335.80;312.03;;;;;;;;;;5031399;28;20491;-71
2021/10/15 04:22:10;;;;;;;352.53;327.70;;;;;;;;;;5031756;28;20456;-69
2021/10/15 04:24:38;;;;;;;336.67;312.53;;;;;;;;;;5030717;28;20492;-69
2021/10/15 04:27:05;;;;;;;344.00;319.00;;;;;;;;;;5031607;28;20481;-67
2021/10/15 04:29:33;;;;;;;382.10;355.50;;;;;;;;;;5031346;28;21049;-68
2021/10/15 04:32:01;;;;;;;368.43;343.07;;;;;;;;;;5036005;28;20451;-69
2021/10/15 04:34:28;;;;;;;370.57;345.23;;;;;;;;;;5034831;28;20492;-68
2021/10/15 04:36:55;;;;;;;357.83;332.70;;;;;;;;;;5016888;28;20464;-70
2021/10/15 04:39:22;;;;;;;377.83;352.33;;;;;;;;;;5016249;28;20453;-68
2021/10/15 04:41:49;;;;;;;368.63;343.30;;;;;;;;;;5033012;28;20480;-67
2021/10/15 04:44:16;;;;;;;380.40;354.60;;;;;;;;;;5034813;28;20495;-67
2021/10/15 04:46:45;;;;;;;371.73;346.80;;;;;;;;;;5035338;28;20455;-67
2021/10/15 04:49:12;;;;;;;352.97;328.63;;;;;;;;;;5027915;28;21054;-69
2021/10/15 04:51:39;;;;;;;343.57;318.77;;;;;;;;;;5015996;28;20449;-69
2021/10/15 04:54:06;;;;;;;351.17;326.27;;;;;;;;;;5020769;28;20488;-70
2021/10/15 04:56:33;;;;;;;360.83;334.73;;;;;;;;;;5035581;28;20449;-68
2021/10/15 04:59:00;;;;;;;358.63;332.83;;;;;;;;;;5030046;28;20472;-67
2021/10/15 05:01:27;;;;;;;363.77;338.13;;;;;;;;;;5016735;28;20476;-67
2021/10/15 05:03:56;;;;;;;375.27;349.43;;;;;;;;;;5021791;28;20480;-68
2021/10/15 05:06:23;;;;;;;343.10;318.10;;;;;;;;;;5037619;28;20444;-68
2021/10/15 05:09:02;;;;;;;351.83;325.17;;;;;;;;;;5034232;28;20483;-71
2021/10/15 05:11:29;;;;;;;472.73;432.03;;;;;;;;;;5035432;28;20922;-69
2021/10/15 05:13:56;;;;;;;360.27;335.40;;;;;;;;;;5030140;28;20571;-68
2021/10/15 05:16:23;;;;;;;331.57;307.17;;;;;;;;;;5033794;28;20997;-68
2021/10/15 05:18:51;;;;;;;328.03;304.07;;;;;;;;;;5034750;28;20533;-69
2021/10/15 05:21:19;;;;;;;296.63;274.00;;;;;;;;;;5030882;28;20465;-69
2021/10/15 05:23:46;;;;;;;305.93;284.60;;;;;;;;;;5015014;28;20492;-68
2021/10/15 05:26:13;;;;;;;277.90;257.57;;;;;;;;;;5018339;28;20960;-68
2021/10/15 05:28:40;;;;;;;281.53;260.47;;;;;;;;;;5034625;28;20539;-72
2021/10/15 05:31:07;;;;;;;276.90;255.53;;;;;;;;;;5026412;28;20914;-68
2021/10/15 05:33:35;;;;;;;332.13;309.63;;;;;;;;;;5033855;28;20491;-72
2021/10/15 05:36:02;;;;;;;309.23;287.73;;;;;;;;;;5033398;28;20469;-67
2021/10/15 05:38:30;;;;;;;296.80;273.97;;;;;;;;;;5034698;28;20822;-72
2021/10/15 05:40:57;;;;;;;299.13;276.60;;;;;;;;;;5033865;28;20468;-68
2021/10/15 05:43:24;;;;;;;327.77;304.70;;;;;;;;;;5034520;28;20477;-69
2021/10/15 05:45:51;;;;;;;290.50;269.00;;;;;;;;;;5029794;28;20977;-72
2021/10/15 05:48:18;;;;;;;287.30;266.10;;;;;;;;;;5030466;28;20485;-69
2021/10/15 05:50:46;;;;;;;282.57;260.77;;;;;;;;;;5034417;28;20452;-69
2021/10/15 05:53:16;;;;;;;308.83;287.37;;;;;;;;;;5018083;28;20465;-71
2021/10/15 05:55:58;;;;;;;222.37;204.70;;;;;;;;;;5029176;28;20468;-72
2021/10/15 06:01:10;;;;;;;297.47;273.90;;;;;;;;;;5033118;28;20444;-65
2021/10/15 06:03:39;;;;;;;456.57;425.60;;;;;;;;;;5033217;28;20484;-66
2021/10/15 06:14:28;;;;;;;577.70;541.20;;;;;;;;;;5030660;28;20514;-66
2021/10/15 06:16:58;;;;;;;584.53;548.23;;;;;;;;;;5033451;28;20507;-66
2021/10/15 06:19:27;;;;;;;555.63;520.30;;;;;;;;;;5032732;28;20467;-66
2021/10/15 06:21:54;;;;;;;536.70;502.77;;;;;;;;;;5032605;28;20828;-66
2021/10/15 06:24:22;;;;;;;557.67;522.37;;;;;;;;;;5016555;28;20496;-66
2021/10/15 06:26:50;;;;;;;536.57;502.77;;;;;;;;;;5013744;28;20460;-66
2021/10/15 06:29:17;;;;;;;481.20;450.30;;;;;;;;;;5029681;28;21010;-66
2021/10/15 06:31:44;;;;;;;497.77;467.97;;;;;;;;;;5027913;28;20462;-66
2021/10/15 06:34:11;;;;;;;409.50;377.90;;;;;;;;;;5028645;28;20983;-66
2021/10/15 06:36:39;;;;;;;447.63;414.53;;;;;;;;;;5033247;28;20461;-66
2021/10/15 06:39:06;;;;;;;455.10;423.47;;;;;;;;;;5024325;28;20827;-66
2021/10/15 06:41:33;;;;;;;452.97;421.10;;;;;;;;;;5032530;28;20990;-66
2021/10/15 06:44:02;;;;;;;438.53;407.80;;;;;;;;;;5032336;28;20488;-66
2021/10/15 06:46:29;;;;;;;441.00;410.87;;;;;;;;;;5032541;28;20960;-67
2021/10/15 06:48:56;;;;;;;516.60;482.27;;;;;;;;;;5032800;28;20477;-73
2021/10/15 06:51:23;;;;;;;425.17;396.90;;;;;;;;;;5030164;28;20460;-69
2021/10/15 06:53:50;;;;;;;369.50;346.30;;;;;;;;;;5027907;28;20563;-71
2021/10/15 06:56:17;;;;;;;311.13;291.93;;;;;;;;;;5032455;28;20457;-68
2021/10/15 06:58:44;;;;;;;327.40;307.67;;;;;;;;;;5016652;28;20456;-70
2021/10/15 07:01:13;;;;;;;281.83;265.43;;;;;;;;;;5020495;28;20449;-69
2021/10/15 07:03:40;;;;;;;252.27;237.43;;;;;;;;;;5012761;28;20988;-69
2021/10/15 07:06:07;;;;;;;237.93;223.90;;;;;;;;;;5017822;28;21000;-68
2021/10/15 07:08:34;;;;;;;222.07;208.87;;;;;;;;;;5030368;28;20503;-67
2021/10/15 07:11:01;;;;;;;219.43;206.43;;;;;;;;;;5032557;28;20455;-67
2021/10/15 07:13:28;;;;;;;219.67;206.67;;;;;;;;;;5032233;28;20920;-68
2021/10/15 07:15:55;;;;;;;217.40;204.30;;;;;;;;;;5031542;28;20456;-67
2021/10/15 07:18:24;;;;;;;229.90;216.80;;;;;;;;;;5014908;28;20457;-67
2021/10/15 07:20:51;;;;;;;203.53;191.83;;;;;;;;;;5014160;28;20460;-68
2021/10/15 07:23:18;;;;;;;155.13;145.53;;;;;;;;;;5031574;28;20860;-67
2021/10/15 07:25:46;;;;;;;151.07;141.40;;;;;;;;;;5021614;28;20457;-70
2021/10/15 07:28:14;;;;;;;147.03;137.53;;;;;;;;;;5032509;28;20803;-68
2021/10/15 07:30:42;;;;;;;140.30;130.63;;;;;;;;;;5033084;28;20484;-64
2021/10/15 07:33:09;;;;;;;151.70;141.80;;;;;;;;;;5032680;28;20433;-65
2021/10/15 07:35:38;;;;;;;152.37;142.57;;;;;;;;;;5020850;28;20454;-64
2021/10/15 07:38:05;;;;;;;174.27;162.33;;;;;;;;;;5014433;28;20454;-64
2021/10/15 07:40:32;;;;;;;209.27;196.20;;;;;;;;;;5023958;28;20448;-64
2021/10/15 07:42:59;;;;;;;246.17;229.87;;;;;;;;;;5032812;28;20451;-64
2021/10/15 07:45:28;;;;;;;291.43;271.90;;;;;;;;;;5030531;28;20460;-64
2021/10/15 07:47:55;;;;;;;232.30;214.27;;;;;;;;;;5014064;28;21007;-64
2021/10/15 07:50:23;;;;;;;417.63;387.37;;;;;;;;;;5014159;28;20456;-64
2021/10/15 07:52:51;;;;;;;436.90;405.27;;;;;;;;;;5023685;28;20463;-65
2021/10/15 07:55:18;;;;;;;340.70;314.30;;;;;;;;;;5031999;28;20481;-64
2021/10/15 07:57:46;;;;;;;351.87;326.87;;;;;;;;;;5032080;28;20458;-69
2021/10/15 08:00:13;;;;;;;268.90;249.70;;;;;;;;;;5031533;28;20943;-70
2021/10/15 08:02:41;;;;;;;211.43;194.70;;;;;;;;;;5031145;28;20449;-70
2021/10/15 08:05:12;;;;;;;208.23;193.07;;;;;;;;;;5030616;28;20474;-69
2021/10/15 08:07:39;;;;;;;177.37;163.63;;;;;;;;;;5030669;28;20449;-70
2021/10/15 08:10:09;;;;;;;171.30;157.80;;;;;;;;;;5031217;28;20484;-70
2021/10/15 08:12:37;;;;;;;165.33;152.10;;;;;;;;;;5020394;28;20516;-70
2021/10/15 08:15:04;;;;;;;160.97;148.03;;;;;;;;;;5014711;28;20477;-71
2021/10/15 08:17:31;;;;;;;163.30;151.53;;;;;;;;;;5027762;28;20453;-70
2021/10/15 08:19:58;;;;;;;142.07;130.57;;;;;;;;;;5016010;28;20821;-70
2021/10/15 08:22:26;;;;;;;165.10;153.40;;;;;;;;;;5028194;28;20943;-70
2021/10/15 08:24:53;;;;;;;148.87;137.53;;;;;;;;;;5031047;28;21025;-68
2021/10/15 08:27:22;;;;;;;144.10;133.00;;;;;;;;;;5027647;28;20444;-68
2021/10/15 08:29:49;;;;;;;138.40;127.80;;;;;;;;;;5022113;28;20838;-68
2021/10/15 08:32:16;;;;;;;141.80;131.80;;;;;;;;;;5031970;28;20460;-68
2021/10/15 08:34:43;;;;;;;142.60;132.73;;;;;;;;;;5031032;28;20478;-68
2021/10/15 08:37:10;;;;;;;144.17;134.53;;;;;;;;;;5019372;28;20458;-68
2021/10/15 08:39:37;;;;;;;135.23;125.63;;;;;;;;;;5015067;28;20452;-69
2021/10/15 08:42:04;;;;;;;149.83;139.50;;;;;;;;;;5031430;28;20458;-69
2021/10/15 08:44:35;;;;;;;148.40;138.17;;;;;;;;;;5028891;28;20556;-69
2021/10/15 08:47:02;;;;;;;155.80;144.80;;;;;;;;;;5023262;28;20452;-67
2021/10/15 08:49:30;;;;;;;156.53;145.73;;;;;;;;;;5019638;28;20583;-69
2021/10/15 08:51:57;;;;;;;144.90;134.50;;;;;;;;;;5027852;28;20982;-69
2021/10/15 08:54:24;;;;;;;151.27;140.77;;;;;;;;;;5030704;28;20488;-68
2021/10/15 08:56:51;;;;;;;142.73;132.93;;;;;;;;;;5011636;28;20458;-70
2021/10/15 08:59:22;;;;;;;142.17;132.37;;;;;;;;;;5022423;28;20441;-70
2021/10/15 09:01:51;;;;;;;136.57;127.07;;;;;;;;;;5031037;28;20452;-70
2021/10/15 09:04:20;;;;;;;134.67;125.47;;;;;;;;;;5031206;28;20476;-70
2021/10/15 09:06:48;;;;;;;140.73;131.27;;;;;;;;;;5025944;28;20449;-70
2021/10/15 09:09:16;;;;;;;134.80;125.33;;;;;;;;;;5013372;28;20485;-70
2021/10/15 09:11:45;;;;;;;135.80;126.53;;;;;;;;;;5027043;28;20450;-70
2021/10/15 09:14:14;;;;;;;216.20;203.30;;;;;;;;;;5013190;28;20473;-69
2021/10/15 09:16:59;;;;;;;205.77;193.20;;;;;;;;;;5015133;28;20837;-70
2021/10/15 09:19:27;;;;;;;213.33;200.73;;;;;;;;;;5028635;28;20559;-66
2021/10/15 09:22:08;;;;;;;230.60;216.57;;;;;;;;;;5035988;28;20452;-65
2021/10/15 09:24:37;;;;;;;234.13;220.47;;;;;;;;;;5016701;28;20839;-70
2021/10/15 09:27:32;;;;;;;194.77;182.17;;;;;;;;;;5017620;28;20492;-65
2021/10/15 09:30:01;;;;;;;245.23;230.83;;;;;;;;;;5001956;28;20476;-70
2021/10/15 09:32:30;;;;;;;186.60;174.30;;;;;;;;;;5036186;28;20449;-67
2021/10/15 09:34:58;;;;;;;292.00;275.13;;;;;;;;;;5034865;28;20476;-66
2021/10/15 09:37:26;;;;;;;300.10;282.17;;;;;;;;;;5020890;28;20445;-67
2021/10/15 09:40:01;;;;;;;160.63;149.10;;;;;;;;;;5020794;28;20984;-72
2021/10/15 09:42:29;;;;;;;154.20;142.70;;;;;;;;;;5026358;28;20467;-73
2021/10/15 09:45:02;;;;;;;174.70;162.50;;;;;;;;;;5034793;28;20473;-73
2021/10/15 09:47:30;;;;;;;186.07;173.63;;;;;;;;;;5034944;28;20503;-74
2021/10/15 09:50:02;;;;;;;204.33;190.43;;;;;;;;;;5036571;28;20477;-71
2021/10/15 09:52:34;;;;;;;216.20;202.00;;;;;;;;;;5047107;28;21010;-74
2021/10/15 09:55:06;;;;;;;250.73;234.97;;;;;;;;;;5035360;28;20480;-72
2021/10/15 09:57:34;;;;;;;234.57;219.57;;;;;;;;;;5038268;28;20547;-71
2021/10/15 10:00:02;;;;;;;236.83;221.33;;;;;;;;;;5037440;28;20455;-71
2021/10/15 10:02:30;;;;;;;261.27;243.67;;;;;;;;;;5028464;28;20456;-73
2021/10/15 10:04:57;;;;;;;342.40;319.50;;;;;;;;;;5035920;28;20844;-72
2021/10/15 10:07:25;;;;;;;492.33;458.20;;;;;;;;;;5035648;28;20459;-74
2021/10/15 10:09:53;;;;;;;518.90;484.23;;;;;;;;;;5061871;22;20908;-71
2021/10/15 10:12:23;;;;;;;627.23;584.43;;;;;;;;;;5020728;28;20460;-69
2021/10/15 10:14:50;;;;;;;578.70;539.93;;;;;;;;;;5031220;28;20805;-71
2021/10/15 10:17:25;;;;;;;484.07;452.43;;;;;;;;;;5035579;28;20444;-71
2021/10/15 10:19:56;;;;;;;399.20;378.83;;;;;;;;;;5013733;28;20480;-71
2021/10/15 10:22:23;;;;;;;327.23;312.03;;;;;;;;;;5033042;28;20479;-72
2021/10/15 10:24:53;;;;;;;235.27;224.17;;;;;;;;;;5026410;28;20956;-71
2021/10/15 10:27:27;;;;;;;159.50;151.03;;;;;;;;;;5023497;28;20959;-71
2021/10/15 10:29:55;;;;;;;106.10;99.90;;;;;;;;;;5038668;28;20483;-72
2021/10/15 10:32:23;;;;;;;76.00;71.10;;;;;;;;;;5037470;28;20449;-66
2021/10/15 10:34:50;;;;;;;72.47;67.90;;;;;;;;;;5037429;28;20455;-66
2021/10/15 10:37:19;;;;;;;62.10;58.43;;;;;;;;;;5030581;28;20488;-67
2021/10/15 10:39:46;;;;;;;48.10;45.20;;;;;;;;;;5031239;28;20471;-67
2021/10/15 10:42:14;;;;;;;45.60;42.73;;;;;;;;;;5033113;28;20500;-73
2021/10/15 10:44:41;;;;;;;41.03;38.20;;;;;;;;;;5035334;28;20451;-73
2021/10/15 10:47:11;;;;;;;45.50;42.50;;;;;;;;;;5032180;28;20480;-72
2021/10/15 10:49:39;;;;;;;38.27;35.67;;;;;;;;;;5033385;28;20575;-72
2021/10/15 10:52:10;;;;;;;45.27;42.20;;;;;;;;;;5033432;28;20460;-72
2021/10/15 10:54:40;;;;;;;44.57;41.70;;;;;;;;;;5032188;28;20452;-68
2021/10/15 10:57:14;;;;;;;63.23;59.33;;;;;;;;;;5033335;28;20456;-72
2021/10/15 10:59:41;;;;;;;62.57;58.60;;;;;;;;;;5029833;28;20439;-71
2021/10/15 11:02:16;;;;;;;67.93;63.73;;;;;;;;;;5032080;28;20463;-71
2021/10/15 11:04:51;;;;;;;49.00;45.67;;;;;;;;;;5041356;28;20448;-71
2021/10/15 11:07:23;;;;;;;46.33;43.33;;;;;;;;;;5014042;28;20859;-72
2021/10/15 11:09:53;;;;;;;50.03;46.57;;;;;;;;;;5014516;28;20806;-71
2021/10/15 11:12:21;;;;;;;69.93;65.53;;;;;;;;;;5014497;28;20441;-71
2021/10/15 11:14:50;;;;;;;102.27;96.60;;;;;;;;;;5015735;28;20446;-71
2021/10/15 11:17:18;;;;;;;83.87;78.83;;;;;;;;;;5015990;28;20450;-71
2021/10/15 11:19:45;;;;;;;52.93;49.63;;;;;;;;;;5014545;28;20847;-72
2021/10/15 11:22:12;;;;;;;38.90;36.30;;;;;;;;;;5013840;28;20936;-72
2021/10/15 11:24:39;;;;;;;34.67;32.20;;;;;;;;;;5014232;28;20445;-72
2021/10/15 11:27:18;;;;;;;34.03;32.03;;;;;;;;;;5013069;28;20456;-72
2021/10/15 11:29:52;;;;;;;35.73;33.43;;;;;;;;;;5013113;28;20489;-72
2021/10/15 11:32:30;;;;;;;33.20;31.20;;;;;;;;;;5012796;28;20819;-71
2021/10/15 11:35:07;;;;;;;32.00;30.00;;;;;;;;;;5013169;28;20536;-72
2021/10/15 11:37:51;;;;;;;30.90;28.90;;;;;;;;;;5012958;28;20455;-72
2021/10/15 11:40:19;;;;;;;30.33;28.47;;;;;;;;;;5012867;28;20492;-71
2021/10/15 11:42:48;;;;;;;29.57;27.57;;;;;;;;;;5013183;28;21031;-71
2021/10/15 11:45:25;;;;;;;29.20;27.37;;;;;;;;;;5013036;28;20460;-72
2021/10/15 11:47:59;;;;;;;29.10;27.30;;;;;;;;;;5013474;28;20434;-72
2021/10/15 11:50:33;;;;;;;27.47;25.60;;;;;;;;;;5012923;28;20485;-71
2021/10/15 11:53:00;;;;;;;27.70;25.93;;;;;;;;;;5012955;28;20452;-71
2021/10/15 11:55:31;;;;;;;27.73;25.90;;;;;;;;;;5013095;28;20449;-72
2021/10/15 11:58:13;;;;;;;25.97;24.37;;;;;;;;;;5013289;28;20792;-71
2021/10/15 12:00:55;;;;;;;27.50;25.90;;;;;;;;;;5012513;28;20472;-71
2021/10/15 12:03:26;;;;;;;28.77;26.97;;;;;;;;;;5013130;28;20436;-72
2021/10/15 12:05:53;;;;;;;29.53;27.67;;;;;;;;;;5012710;28;20467;-72
2021/10/15 12:08:20;;;;;;;27.07;25.43;;;;;;;;;;5012626;28;20446;-71
2021/10/15 12:10:48;;;;;;;27.90;26.30;;;;;;;;;;5012235;28;20500;-71
2021/10/15 12:13:15;;;;;;;27.43;25.47;;;;;;;;;;5017546;28;20449;-71
2021/10/15 12:15:42;;;;;;;26.10;24.30;;;;;;;;;;5015608;28;20446;-71
2021/10/15 12:18:11;;;;;;;25.10;23.70;;;;;;;;;;5014264;28;20450;-71
2021/10/15 12:20:38;;;;;;;25.20;23.80;;;;;;;;;;5012810;28;20468;-71
2021/10/15 12:23:06;;;;;;;25.30;23.83;;;;;;;;;;5012749;28;20445;-71
2021/10/15 12:25:35;;;;;;;25.17;23.87;;;;;;;;;;5012675;28;20449;-71
2021/10/15 12:28:11;;;;;;;23.63;22.33;;;;;;;;;;5012879;28;20540;-72
2021/10/15 12:30:39;;;;;;;27.47;25.87;;;;;;;;;;5012567;28;20992;-72
2021/10/15 12:33:08;;;;;;;26.27;24.70;;;;;;;;;;5012629;28;20456;-71
2021/10/15 12:35:37;;;;;;;26.30;24.83;;;;;;;;;;5012276;28;20964;-72
2021/10/15 12:38:04;;;;;;;28.20;26.70;;;;;;;;;;5012492;28;20453;-72
2021/10/15 12:40:38;;;;;;;26.23;24.80;;;;;;;;;;5012063;28;20872;-72
2021/10/15 12:43:15;;;;;;;26.60;25.00;;;;;;;;;;5011991;28;20477;-71
2021/10/15 12:45:43;;;;;;;24.60;22.90;;;;;;;;;;5011875;28;20496;-72
2021/10/15 12:48:16;;;;;;;24.00;22.50;;;;;;;;;;5012471;28;20456;-72
2021/10/15 12:50:56;;;;;;;23.70;22.20;;;;;;;;;;5014340;28;20493;-71
2021/10/15 12:53:24;;;;;;;24.30;22.80;;;;;;;;;;5017169;28;20828;-72
2021/10/15 12:55:53;;;;;;;23.30;21.90;;;;;;;;;;5015836;28;20445;-72
2021/10/15 12:58:20;;;;;;;24.73;23.20;;;;;;;;;;5016005;28;20453;-72
2021/10/15 13:00:49;;;;;;;24.43;22.83;;;;;;;;;;5016063;28;20465;-72
2021/10/15 13:03:16;;;;;;;25.67;24.03;;;;;;;;;;5015919;28;20445;-72
2021/10/15 13:05:45;;;;;;;27.13;25.33;;;;;;;;;;5015359;28;20449;-71
2021/10/15 13:08:13;;;;;;;27.47;25.77;;;;;;;;;;5015279;28;20830;-71
2021/10/15 13:10:40;;;;;;;26.23;24.50;;;;;;;;;;5015445;28;20543;-72
2021/10/15 13:13:07;;;;;;;26.87;25.27;;;;;;;;;;5015903;28;20817;-72
2021/10/15 13:15:34;;;;;;;28.20;26.20;;;;;;;;;;5015308;28;20445;-71
2021/10/15 13:18:02;;;;;;;28.93;27.13;;;;;;;;;;5015893;28;20472;-72
2021/10/15 13:20:29;;;;;;;25.97;24.17;;;;;;;;;;5015035;28;20465;-72
2021/10/15 13:22:59;;;;;;;25.73;24.13;;;;;;;;;;5015442;28;20949;-71
2021/10/15 13:25:26;;;;;;;25.40;23.80;;;;;;;;;;5015321;28;20445;-71
2021/10/15 13:27:54;;;;;;;26.17;24.23;;;;;;;;;;5015361;28;20450;-72
2021/10/15 13:30:21;;;;;;;25.97;24.17;;;;;;;;;;5015081;28;20488;-71
2021/10/15 13:32:49;;;;;;;25.40;23.43;;;;;;;;;;5015402;28;20445;-72
2021/10/15 13:35:16;;;;;;;25.03;23.33;;;;;;;;;;5014933;28;20453;-72
2021/10/15 13:37:45;;;;;;;27.67;25.47;;;;;;;;;;5014909;28;20449;-72
2021/10/15 13:40:17;;;;;;;27.10;24.97;;;;;;;;;;5014804;28;20472;-71
2021/10/15 13:45:38;;;;;;;26.80;24.97;;;;;;;;;;5014136;28;20409;-71
2021/10/15 13:50:50;;;;;;;30.43;28.20;;;;;;;;;;5014358;28;20484;-71
2021/10/15 13:53:17;;;;;;;33.33;30.80;;;;;;;;;;5014280;28;20442;-71
2021/10/15 13:55:52;;;;;;;39.77;37.10;;;;;;;;;;5014332;28;20468;-71
2021/10/15 13:58:23;;;;;;;35.50;33.07;;;;;;;;;;5014139;28;20801;-71
2021/10/15 14:00:51;;;;;;;30.70;28.70;;;;;;;;;;5014388;28;20564;-69
2021/10/15 14:03:40;;;;;;;30.30;28.40;;;;;;;;;;5014340;28;20829;-69
2021/10/15 14:06:07;;;;;;;31.40;29.40;;;;;;;;;;5013941;28;20527;-69
2021/10/15 14:08:35;;;;;;;35.10;32.70;;;;;;;;;;5014408;28;20450;-69
2021/10/15 14:11:03;;;;;;;32.67;30.37;;;;;;;;;;5014079;28;20493;-68
2021/10/15 14:13:31;;;;;;;33.47;31.27;;;;;;;;;;5014414;28;20955;-69
2021/10/15 14:15:58;;;;;;;31.20;29.10;;;;;;;;;;5014305;28;20453;-72
2021/10/15 14:18:25;;;;;;;30.97;28.67;;;;;;;;;;5014170;28;20453;-72
2021/10/15 14:20:52;;;;;;;32.33;30.23;;;;;;;;;;5013605;28;20483;-71
2021/10/15 14:23:19;;;;;;;29.53;27.50;;;;;;;;;;5014223;28;20776;-72
2021/10/15 14:25:46;;;;;;;30.47;28.37;;;;;;;;;;5013835;28;20454;-71